ADDS METAR Data INFO
IDs: Format: Raw Decoded Include TAF

Data at: 1427 UTC 20 Sep 2017

KWRL 201353Z AUTO 17009KT 10SM CLR 04/01 A2982 RMK AO2 SLP105 T00390006
KWRL 201253Z AUTO 14006KT 10SM CLR 01/00 A2982 RMK AO2 SLP109 T00060000
KWRL 201153Z AUTO 00000KT 10SM CLR 01/01 A2981 RMK AO2 SLP104 70007 T00060006 10039 20006 52003
KWRL 201053Z AUTO 16007KT 10SM CLR 02/02 A2980 RMK AO2 SLP093 T00170017
KWRL 200953Z AUTO 20003KT 10SM CLR 01/01 A2981 RMK AO2 SLP095 T00110011
KWRL 200853Z AUTO 00000KT 10SM CLR 02/01 A2980 RMK AO2 SLP097 T00170011 53001
KWRL 200753Z AUTO 00000KT 10SM CLR 03/02 A2980 RMK AO2 SLP098 T00280022
KWRL 200653Z AUTO 35003KT 10SM CLR 04/03 A2979 RMK AO2 SLP086 T00390033 401390022
KWRL 200553Z AUTO 00000KT 10SM FEW100 03/03 A2980 RMK AO2 SLP092 60003 T00330028 10100 20033 51004
KWRL 200453Z AUTO 06005KT 10SM CLR 04/03 A2980 RMK AO2 SLP092 T00440028
KWRL 200353Z AUTO 21003KT 10SM CLR 06/03 A2979 RMK AO2 RAE01 SLP084 P0000 T00560033
KWRL 200253Z AUTO 15003KT 5SM -RA SCT040 BKN055 OVC090 09/01 A2979 RMK AO2 RAB44 SLP078 P0003 60003 T00890011 53014
KWRL 200153Z AUTO 16006KT 10SM SCT090 BKN110 08/06 A2976 RMK AO2 LTG DSNT NW RAB03E31 SLP069 P0000 T00780061
KWRL 200053Z AUTO 18007KT 10SM FEW045 SCT070 OVC095 08/04 A2975 RMK AO2 RAE09B28E46 TSB06E24 SLP066 P0000 T00830044
KWRL 200026Z AUTO 16008KT 10SM BKN060 BKN080 OVC095 09/07 A2975 RMK AO2 RAE09 TSB06E24 P0000 T00940067
KWRL 200012Z AUTO 00000KT 10SM TS BKN065 OVC090 10/07 A2975 RMK AO2 LTG DSNT W RAE09 TSB06 P0000 T01000072
KWRL 192353Z AUTO 07005KT 10SM -RA FEW060 BKN075 OVC090 09/06 A2974 RMK AO2 LTG DSNT W RAB39 SLP060 P0001 60003 T00940056 10139 20089 53013
KWRL 192253Z AUTO 04003KT 10SM SCT055 BKN080 OVC100 11/03 A2972 RMK AO2 SLP052 T01110033
KWRL 192153Z AUTO 04008KT 010V070 10SM FEW038 14/04 A2971 RMK AO2 SLP042 T01390044
KWRL 192053Z AUTO 02006KT 10SM FEW060 SCT080 OVC095 11/06 A2970 RMK AO2 RAB1954E11 SLP046 P0002 60002 T01060056 51016
KWRL 191953Z AUTO 36014G23KT 10SM BKN043 OVC055 09/06 A2970 RMK AO2 SLP046 T00940056
KWRL 191853Z AUTO 36011G18KT 10SM SCT043 BKN110 11/06 A2968 RMK AO2 SLP030 T01110061
KWRL 191839Z AUTO 35011KT 10SM FEW019 SCT026 12/07 A2966 RMK AO2 T01220072
KWRL 191813Z AUTO 35015KT 10SM BKN019 11/07 A2965 RMK AO2 T01060072
KWRL 191753Z AUTO 34011KT 10SM CLR 11/08 A2965 RMK AO2 SLP020 60001 T01060078 10117 20094 50009
KWRL 191653Z AUTO 08004KT 10SM FEW070 BKN090 09/08 A2966 RMK AO2 RAE17B35E45 SLP026 P0001 T00940078
KWRL 191634Z AUTO 03004KT 10SM SCT015 BKN070 OVC090 09/07 A2966 RMK AO2 RAE17 P0001 T00940072
KWRL 191622Z AUTO 01004KT 10SM FEW011 BKN016 OVC065 09/08 A2966 RMK AO2 RAE17 P0001 T00940078
KWRL 191613Z AUTO 36005KT 10SM -RA BKN013 BKN023 OVC060 09/08 A2966 RMK AO2 P0001 T00940083
KWRL 191605Z AUTO 01009KT 10SM -RA SCT011 BKN023 OVC070 10/08 A2965 RMK AO2 P0001 T01000083
KWRL 191553Z AUTO 36010KT 10SM -RA FEW011 BKN055 OVC080 11/10 A2964 RMK AO2 RAB24 SLP017 P0000 T01110100
KWRL 191453Z AUTO 26006KT 10SM OVC090 11/10 A2962 RMK AO2 SLP006 T01110100 51018
KWRL 191353Z AUTO 23012KT 10SM BKN090 OVC110 12/09 A2961 RMK AO2 SLP000 T01170089
KWRL 191253Z AUTO 13005KT 10SM CLR 10/08 A2959 RMK AO2 SLP996 T01000083
KWRL 191153Z AUTO 15013KT 10SM FEW095 11/09 A2956 RMK AO2 RAB1054E10 SLP976 P0000 60013 70013 T01110094 10156 20106 56036
KWRL 191053Z AUTO 14016KT 10SM BKN070 OVC090 11/10 A2958 RMK AO2 RAB02E20 SLP982 P0000 T01060100
KWRL 190953Z AUTO 13013KT 10SM OVC070 11/10 A2961 RMK AO2 RAE53 SLP992 P0002 T01060100
KWRL 190853Z AUTO 11006KT 7SM RA OVC060 11/10 A2968 RMK AO2 SLP016 P0008 60011 T01060100 50010
KWRL 190753Z AUTO 02010KT 7SM RA OVC070 11/10 A2968 RMK AO2 PK WND 01026/0710 SLP017 P0003 T01060100
KWRL 190653Z AUTO 35020G30KT 10SM -RA BKN075 OVC090 14/07 A2967 RMK AO2 PK WND 36031/0634 RAB42 SLP014 P0000 T01390072 402670022
KWRL 190553Z AUTO 02007KT 10SM BKN110 14/07 A2965 RMK AO2 SLP006 T01440072 10233 20133 53003
KWRL 190453Z AUTO 17003KT 10SM BKN110 14/07 A2963 RMK AO2 SLP003 T01390072
KWRL 190353Z AUTO 17008KT 10SM CLR 15/05 A2962 RMK AO2 SLP999 T01500050
KWRL 190253Z AUTO 17005KT 10SM CLR 16/04 A2964 RMK AO2 SLP017 T01610044 58012